Time;durP1;ratioP1;P1;durP2;ratioP2;P2;SDS_P1;SDS_P2;PMS_P1;PMS_P2;Temp;Humidity;BMP_temperature;BMP_pressure;BME280_temperature;BME280_humidity;BME280_pressure;Samples;Min_cycle;Max_cycle;Signal;HPM_P1;HPM_P2
2021/04/15 00:01:38;;;;;;;6.53;5.13;;;;;;;5.68;54.40;93951.31;6170209;22;20025;-81
2021/04/15 00:04:09;;;;;;;7.40;5.75;;;;;;;5.84;53.92;93957.44;6190774;22;20016;-81
2021/04/15 00:06:35;;;;;;;5.55;5.05;;;;;;;5.85;54.45;93954.59;6199947;22;20498;-81
2021/04/15 00:09:14;;;;;;;7.53;5.70;;;;;;;5.98;53.70;93958.59;6194040;22;20012;-80
2021/04/15 00:11:40;;;;;;;6.63;5.35;;;;;;;5.94;53.75;93941.78;6167613;22;20032;-81
2021/04/15 00:14:11;;;;;;;6.43;5.50;;;;;;;6.00;53.53;93953.88;6205235;23;20108;-81
2021/04/15 00:16:37;;;;;;;5.90;5.30;;;;;;;5.93;53.15;93942.81;6193919;22;20318;-81
2021/04/15 00:19:06;;;;;;;5.75;4.70;;;;;;;6.02;53.36;93957.81;6195061;23;20046;-81
2021/04/15 00:21:31;;;;;;;5.20;4.70;;;;;;;5.95;53.58;93931.06;6168081;22;20463;-81
2021/04/15 00:23:57;;;;;;;6.95;4.80;;;;;;;6.09;53.24;93942.66;6197860;23;20224;-81
2021/04/15 00:26:28;;;;;;;9.30;5.43;;;;;;;6.05;53.27;93944.22;6194133;23;20339;-81
2021/04/15 00:28:54;;;;;;;5.47;4.80;;;;;;;6.14;52.58;93949.75;6155220;23;20066;-81
2021/04/15 00:31:21;;;;;;;7.63;4.75;;;;;;;5.89;52.87;93912.91;6121883;22;20021;-81
2021/04/15 00:33:47;;;;;;;5.35;4.10;;;;;;;5.99;52.46;93944.44;6193579;22;20016;-81
2021/04/15 00:36:16;;;;;;;4.63;4.22;;;;;;;5.99;52.34;93949.69;6193371;22;20393;-80
2021/04/15 00:38:41;;;;;;;4.32;3.92;;;;;;;5.79;53.11;93913.63;6163715;22;20362;-84
2021/04/15 00:41:09;;;;;;;4.80;4.00;;;;;;;5.89;52.76;93924.19;6197493;23;20225;-82
2021/04/15 00:43:37;;;;;;;5.28;4.78;;;;;;;6.06;52.92;93950.22;6194525;22;20009;-82
2021/04/15 00:46:29;;;;;;;5.40;4.55;;;;;;;5.95;53.22;93932.88;6193234;22;20473;-82
2021/04/15 00:48:57;;;;;;;5.13;4.28;;;;;;;5.93;52.72;93920.03;6138374;23;20526;-82
2021/04/15 00:51:40;;;;;;;4.45;3.85;;;;;;;6.08;52.83;93940.28;6168097;23;20123;-80
2021/04/15 00:54:24;;;;;;;4.70;4.30;;;;;;;6.00;53.19;93914.53;6201084;22;20142;-81
2021/04/15 00:56:50;;;;;;;4.32;3.85;;;;;;;6.08;52.52;93932.41;6205720;22;20289;-81
2021/04/15 00:59:16;;;;;;;5.75;5.15;;;;;;;6.03;52.96;93921.88;6200028;23;20299;-81
2021/04/15 01:01:41;;;;;;;4.97;4.47;;;;;;;6.15;52.46;93930.34;6182444;22;20017;-81
2021/04/15 01:04:06;;;;;;;4.82;4.30;;;;;;;6.17;52.80;93930.84;6168745;22;20333;-81
2021/04/15 01:06:32;;;;;;;4.40;4.00;;;;;;;6.14;53.03;93936.63;6172516;23;20048;-81
2021/04/15 01:08:59;;;;;;;5.35;4.53;;;;;;;6.27;52.87;93949.25;6165566;23;20044;-82
2021/04/15 01:11:43;;;;;;;4.80;4.35;;;;;;;6.27;52.26;93938.75;6175826;22;20080;-81
2021/04/15 01:14:31;;;;;;;4.30;3.90;;;;;;;6.13;52.87;93929.81;6147960;23;20408;-81
2021/04/15 01:17:07;;;;;;;4.43;4.03;;;;;;;6.20;53.25;93930.34;6104163;23;20077;-81
2021/04/15 01:19:47;;;;;;;5.35;4.85;;;;;;;6.25;52.86;93937.47;6105502;23;20445;-82
2021/04/15 01:22:51;;;;;;;5.10;4.65;;;;;;;6.20;52.92;93946.09;6134318;23;20336;-81
2021/04/15 01:25:38;;;;;;;5.00;4.60;;;;;;;6.24;53.04;93934.03;6133491;23;20326;-82
2021/04/15 01:28:22;;;;;;;5.78;5.18;;;;;;;6.23;53.02;93939.53;6123745;23;20021;-82
2021/04/15 01:30:54;;;;;;;4.53;4.05;;;;;;;6.18;52.66;93936.91;6129726;23;20021;-82
2021/04/15 01:33:37;;;;;;;4.90;4.10;;;;;;;6.02;52.82;93917.69;6118183;23;20028;-82
2021/04/15 01:36:10;;;;;;;4.88;4.45;;;;;;;5.98;52.81;93921.88;6147945;23;20025;-81
2021/04/15 01:38:47;;;;;;;5.07;4.53;;;;;;;5.86;53.29;93905.53;6132557;23;20080;-80
2021/04/15 01:41:30;;;;;;;4.45;4.05;;;;;;;5.96;53.30;93940.47;6114536;23;20010;-82
2021/04/15 01:44:24;;;;;;;4.40;4.00;;;;;;;5.91;53.21;93939.69;6092259;23;20022;-80
2021/04/15 01:46:58;;;;;;;5.13;4.50;;;;;;;5.92;53.65;93933.38;6096456;23;20080;-81
2021/04/15 01:49:24;;;;;;;5.00;4.50;;;;;;;5.99;53.36;93932.13;6134195;23;20021;-81
2021/04/15 01:51:53;;;;;;;5.22;4.72;;;;;;;5.98;53.34;93934.97;6117253;23;20033;-80
2021/04/15 01:54:24;;;;;;;5.60;5.03;;;;;;;5.99;53.36;93933.94;6088166;23;20018;-81
2021/04/15 01:57:05;;;;;;;4.60;4.20;;;;;;;5.81;52.93;93929.13;6120102;23;20021;-82
2021/04/15 01:59:43;;;;;;;7.95;5.53;;;;;;;5.77;53.13;93928.03;6120293;23;20006;-81
2021/04/15 02:02:16;;;;;;;5.80;4.35;;;;;;;5.74;52.51;93910.19;6143405;23;20511;-80
2021/04/15 02:04:52;;;;;;;9.38;5.95;;;;;;;5.63;52.74;93904.91;6143178;23;20550;-81
2021/04/15 02:07:19;;;;;;;9.20;6.47;;;;;;;5.79;53.06;93921.50;6136343;23;20027;-80
2021/04/15 02:09:47;;;;;;;7.75;6.20;;;;;;;5.86;52.70;93923.91;6167135;23;20341;-80
2021/04/15 02:12:24;;;;;;;3.92;3.55;;;;;;;5.83;52.49;93929.63;6176137;23;20364;-81
2021/04/15 02:15:01;;;;;;;4.32;3.65;;;;;;;5.74;53.41;93925.94;6174595;23;20017;-81
2021/04/15 02:17:37;;;;;;;4.13;3.75;;;;;;;5.72;53.12;93928.78;6176113;23;20009;-82
2021/04/15 02:20:24;;;;;;;4.50;3.67;;;;;;;5.74;53.00;93920.69;6180304;23;20084;-81
2021/04/15 02:23:17;;;;;;;4.53;4.13;;;;;;;5.82;53.32;93938.53;6138701;23;20490;-80
2021/04/15 02:25:57;;;;;;;5.72;5.18;;;;;;;5.81;53.15;93937.00;6167989;23;20017;-81
2021/04/15 02:28:31;;;;;;;4.40;4.00;;;;;;;5.90;53.12;93943.34;6168343;23;20025;-81
2021/04/15 02:31:12;;;;;;;4.23;3.83;;;;;;;5.92;53.52;93942.03;6169717;23;20025;-82
2021/04/15 02:33:47;;;;;;;4.15;3.28;;;;;;;5.92;53.20;93939.41;6155821;23;20028;-81
2021/04/15 02:36:13;;;;;;;4.57;4.13;;;;;;;5.98;53.17;93942.84;6165954;23;20023;-82
2021/04/15 02:39:21;;;;;;;4.85;4.35;;;;;;;6.04;52.30;93939.22;6167912;23;20005;-81
2021/04/15 02:41:50;;;;;;;5.78;5.13;;;;;;;6.00;51.91;93944.19;6156742;23;20242;-81
2021/04/15 02:44:22;;;;;;;7.93;7.10;;;;;;;5.96;51.78;93937.09;6180301;23;20005;-81
2021/04/15 02:47:03;;;;;;;10.93;8.20;;;;;;;5.92;51.53;93936.00;6168908;23;20377;-81
2021/04/15 02:49:31;;;;;;;7.47;6.78;;;;;;;5.84;51.54;93931.22;6141332;23;20471;-81
2021/04/15 02:52:03;;;;;;;4.75;4.25;;;;;;;5.83;51.84;93940.13;6169138;23;20028;-81
2021/04/15 02:54:36;;;;;;;4.80;4.40;;;;;;;5.78;52.43;93953.22;6140931;23;20021;-81
2021/04/15 02:57:11;;;;;;;5.60;4.75;;;;;;;5.71;52.42;93950.06;6175943;23;20017;-81
2021/04/15 03:00:03;;;;;;;5.43;4.85;;;;;;;5.64;52.70;93932.72;6141624;23;20499;-81
2021/04/15 03:02:33;;;;;;;4.75;4.35;;;;;;;5.57;52.71;93929.50;6175286;23;20013;-81
2021/04/15 03:05:04;;;;;;;4.07;3.60;;;;;;;5.75;52.88;93951.91;6180173;23;20001;-81
2021/04/15 03:07:33;;;;;;;4.72;4.07;;;;;;;5.79;52.37;93946.94;6138676;23;20017;-81
2021/04/15 03:10:01;;;;;;;5.22;4.15;;;;;;;5.82;52.27;93946.41;6168785;23;20009;-81
2021/04/15 03:12:35;;;;;;;6.30;4.70;;;;;;;5.85;51.63;93949.34;6168240;23;20024;-81
2021/04/15 03:15:10;;;;;;;4.60;4.20;;;;;;;5.80;51.78;93935.41;6140522;23;20511;-81
2021/04/15 03:17:41;;;;;;;4.45;4.05;;;;;;;5.82;52.09;93949.81;6166669;23;20017;-81
2021/04/15 03:20:14;;;;;;;5.70;5.07;;;;;;;5.89;52.46;93950.44;6168664;23;20025;-82
2021/04/15 03:23:15;;;;;;;4.30;3.90;;;;;;;5.86;52.01;93955.38;6165914;23;20091;-80
2021/04/15 03:25:43;;;;;;;4.68;3.80;;;;;;;5.73;51.90;93940.06;6120261;23;20577;-80
2021/04/15 03:28:35;;;;;;;5.18;4.68;;;;;;;5.70;52.45;93930.91;6163195;23;20396;-81
2021/04/15 03:31:09;;;;;;;5.40;4.85;;;;;;;5.87;52.98;93956.97;6169696;23;20013;-81
2021/04/15 03:33:49;;;;;;;5.60;5.10;;;;;;;5.86;52.78;93950.91;6169750;23;20451;-81
2021/04/15 03:36:29;;;;;;;5.90;5.38;;;;;;;5.95;52.52;93953.88;6171801;23;20104;-82
2021/04/15 03:39:00;;;;;;;6.25;5.57;;;;;;;5.99;52.29;93928.69;6149299;23;20439;-81
2021/04/15 03:41:45;;;;;;;5.60;5.00;;;;;;;6.02;52.37;93949.94;6177662;23;20443;-81
2021/04/15 03:44:17;;;;;;;;;;;;;;;5.97;53.41;93946.50;6179870;23;20420;-81
2021/04/15 03:46:51;;;;;;;6.18;5.55;;;;;;;6.00;54.08;93946.03;6166407;23;20442;-82
2021/04/15 03:49:25;;;;;;;5.70;5.10;;;;;;;5.98;54.44;93938.41;6141983;23;20454;-81
2021/04/15 03:52:04;;;;;;;5.63;5.10;;;;;;;6.10;54.93;93940.81;6141791;23;20020;-82
2021/04/15 03:54:44;;;;;;;12.32;9.10;;;;;;;6.16;54.11;93939.78;6173425;23;20028;-81
2021/04/15 03:57:16;;;;;;;7.78;6.68;;;;;;;6.24;53.38;93946.38;6172481;23;20356;-82
2021/04/15 03:59:53;;;;;;;6.28;5.68;;;;;;;6.38;53.54;93952.72;6168732;23;20413;-81
2021/04/15 04:02:28;;;;;;;7.28;6.00;;;;;;;6.34;54.98;93941.16;6144026;23;20013;-81
2021/04/15 04:05:07;;;;;;;6.18;5.22;;;;;;;6.41;54.11;93941.69;6166043;23;20067;-82
2021/04/15 04:07:42;;;;;;;6.03;5.43;;;;;;;6.34;54.50;93935.91;6169648;23;20199;-82
2021/04/15 04:10:18;;;;;;;6.10;5.43;;;;;;;6.42;53.91;93946.69;6141887;23;20024;-81
2021/04/15 04:12:53;;;;;;;6.15;5.55;;;;;;;6.33;55.63;93935.13;6130810;23;20021;-82
2021/04/15 04:15:21;;;;;;;;;;;;;;;6.38;55.39;93947.47;6167541;23;20017;-81
2021/04/15 04:18:02;;;;;;;6.30;5.70;;;;;;;6.41;54.78;93952.97;6166732;23;19916;-82
2021/04/15 04:20:30;;;;;;;6.38;5.78;;;;;;;6.37;54.87;93951.91;6177345;23;20375;-81
2021/04/15 04:23:02;;;;;;;6.40;5.80;;;;;;;6.40;55.19;93946.13;6178522;23;20001;-81
2021/04/15 04:25:49;;;;;;;8.48;6.47;;;;;;;6.38;55.18;93955.34;6154302;23;20024;-81
2021/04/15 04:28:22;;;;;;;6.90;6.20;;;;;;;6.31;54.73;93958.19;6137486;23;20383;-81
2021/04/15 04:30:52;;;;;;;7.03;6.43;;;;;;;6.25;55.09;93946.13;6152830;23;20067;-81
2021/04/15 04:33:24;;;;;;;7.63;6.88;;;;;;;6.43;54.97;93965.84;6167825;23;20020;-81
2021/04/15 04:35:51;;;;;;;7.13;6.45;;;;;;;6.45;55.58;93961.91;6174892;23;20483;-81
2021/04/15 04:38:20;;;;;;;7.47;6.60;;;;;;;6.41;56.08;93946.94;6166235;23;20008;-81
2021/04/15 04:40:59;;;;;;;7.25;6.45;;;;;;;6.40;56.06;93961.13;6161857;23;20484;-81
2021/04/15 04:43:41;;;;;;;8.43;7.13;;;;;;;6.39;54.92;93949.84;6165329;23;20047;-81
2021/04/15 04:46:15;;;;;;;8.45;6.20;;;;;;;6.50;55.16;93959.28;6152484;23;20009;-81
2021/04/15 04:48:50;;;;;;;8.20;7.38;;;;;;;6.62;54.96;93958.28;6164103;23;20013;-81
2021/04/15 04:51:18;;;;;;;7.05;6.22;;;;;;;6.67;54.95;93953.81;6139409;23;20472;-81
2021/04/15 04:53:48;;;;;;;7.32;6.63;;;;;;;6.65;54.46;93963.00;6146215;23;20338;-81
2021/04/15 04:56:40;;;;;;;9.38;6.57;;;;;;;6.60;54.75;93949.88;6153677;23;20344;-81
2021/04/15 04:59:13;;;;;;;13.15;7.45;;;;;;;6.69;54.56;93964.88;6167066;23;20063;-81
2021/04/15 05:01:40;;;;;;;7.97;7.00;;;;;;;6.72;54.43;93974.06;6167946;23;20052;-81
2021/04/15 05:04:08;;;;;;;8.38;6.97;;;;;;;6.58;55.36;93950.13;6167188;23;20031;-81
2021/04/15 05:06:42;;;;;;;10.10;8.52;;;;;;;6.69;55.43;93964.88;6173196;23;20009;-81
2021/04/15 05:09:32;;;;;;;10.38;9.27;;;;;;;6.65;54.86;93958.53;6172915;23;20461;-81
2021/04/15 05:11:58;;;;;;;12.27;9.18;;;;;;;6.69;56.25;93969.34;6165643;23;20348;-81
2021/04/15 05:14:29;;;;;;;12.50;10.30;;;;;;;6.69;56.07;93966.72;6178833;23;20009;-81
2021/04/15 05:17:25;;;;;;;14.27;10.55;;;;;;;6.83;55.56;93981.72;6167839;23;20048;-81
2021/04/15 05:19:52;;;;;;;9.50;7.43;;;;;;;6.81;54.36;93964.63;6169194;23;20017;-81
2021/04/15 05:22:27;;;;;;;9.20;7.65;;;;;;;6.86;54.63;93975.13;6170943;23;20024;-80
2021/04/15 05:24:59;;;;;;;10.07;8.75;;;;;;;6.78;54.63;93970.41;6173364;23;20021;-81
2021/04/15 05:27:26;;;;;;;9.85;8.25;;;;;;;6.81;54.67;93975.91;6142178;23;20024;-81
2021/04/15 05:30:19;;;;;;;11.15;8.82;;;;;;;6.78;55.13;93967.78;6172911;23;20013;-81
2021/04/15 05:32:46;;;;;;;10.95;9.48;;;;;;;6.78;54.76;93957.25;6167607;23;20132;-81
2021/04/15 05:35:27;;;;;;;12.25;9.38;;;;;;;6.84;55.10;93972.00;6182282;23;20000;-81
2021/04/15 05:37:53;;;;;;;9.23;7.90;;;;;;;6.88;54.60;93973.03;6141824;23;20021;-82
2021/04/15 05:40:19;;;;;;;9.85;7.55;;;;;;;6.94;54.58;93977.22;6172030;23;20032;-81
2021/04/15 05:43:04;;;;;;;8.55;7.28;;;;;;;7.08;54.14;93982.78;6161533;23;20020;-81
2021/04/15 05:45:35;;;;;;;10.53;7.67;;;;;;;7.00;54.81;93964.88;6139956;23;20017;-81
2021/04/15 05:48:05;;;;;;;10.50;7.82;;;;;;;7.20;53.92;93981.47;6167590;23;20706;-81
2021/04/15 05:50:48;;;;;;;12.98;8.68;;;;;;;7.16;54.04;93971.75;6169950;23;20214;-81
2021/04/15 05:53:28;;;;;;;13.88;7.68;;;;;;;7.18;54.36;93988.84;6178392;23;20001;-81
2021/04/15 05:56:10;;;;;;;10.38;7.00;;;;;;;7.19;53.89;93986.97;6142218;23;20013;-81
2021/04/15 05:59:09;;;;;;;11.52;8.05;;;;;;;7.25;53.85;93984.09;6169254;23;20023;-81
2021/04/15 06:02:08;;;;;;;10.32;8.05;;;;;;;7.22;53.91;93984.63;6167929;23;20021;-81
2021/04/15 06:04:39;;;;;;;8.95;7.82;;;;;;;7.19;54.07;93995.66;6165115;23;20104;-81
2021/04/15 06:07:06;;;;;;;11.63;9.85;;;;;;;7.07;55.17;93997.75;6170488;23;20084;-81
2021/04/15 06:09:35;;;;;;;13.52;10.30;;;;;;;6.90;55.76;93976.97;6165227;23;20440;-82
2021/04/15 06:12:12;;;;;;;13.57;11.65;;;;;;;6.98;56.55;93988.81;6166138;23;20452;-82
2021/04/15 06:15:17;;;;;;;13.60;11.98;;;;;;;6.96;56.61;93975.16;6140287;23;20087;-81
2021/04/15 06:17:54;;;;;;;28.00;14.75;;;;;;;7.04;56.73;93982.50;6108454;23;20148;-81
2021/04/15 06:20:42;;;;;;;12.93;10.40;;;;;;;7.14;56.33;93995.66;6168403;23;20352;-82
2021/04/15 06:23:19;;;;;;;14.55;10.82;;;;;;;7.14;55.93;93985.13;6150444;23;20384;-82
2021/04/15 06:25:48;;;;;;;13.50;11.50;;;;;;;7.15;56.59;93991.97;6151370;23;20032;-81
2021/04/15 06:28:24;;;;;;;17.13;12.07;;;;;;;7.12;57.50;93999.59;6136081;23;20024;-81
2021/04/15 06:31:20;;;;;;;18.30;12.45;;;;;;;7.10;57.16;93999.84;6170901;23;20100;-81
2021/04/15 06:33:46;;;;;;;;;;;;;;;7.10;56.29;93999.84;6166754;23;20183;-81
2021/04/15 06:36:41;;;;;;;16.77;8.85;;;;;;;7.19;55.72;93992.22;6165553;23;19998;-81
2021/04/15 06:39:13;;;;;;;15.80;8.15;;;;;;;7.17;54.57;93992.50;6147898;23;20518;-80
2021/04/15 06:42:11;;;;;;;10.25;8.27;;;;;;;7.23;54.54;93986.19;6142072;23;20001;-81
2021/04/15 06:45:12;;;;;;;13.00;9.13;;;;;;;7.21;54.73;93984.88;6125754;23;20854;-81
2021/04/15 06:47:50;;;;;;;11.30;8.18;;;;;;;7.19;53.96;93987.75;6177816;23;19997;-81
2021/04/15 06:50:43;;;;;;;8.93;7.85;;;;;;;7.22;53.96;93984.63;6143186;23;20012;-82
2021/04/15 06:53:31;;;;;;;13.40;8.43;;;;;;;7.18;53.39;93975.69;6162970;23;20021;-82
2021/04/15 06:56:23;;;;;;;11.77;8.20;;;;;;;7.14;53.94;93992.22;6168503;23;20459;-81
2021/04/15 06:59:05;;;;;;;11.13;8.35;;;;;;;7.26;54.05;93990.94;6168786;23;20013;-82
2021/04/15 07:02:01;;;;;;;9.75;8.70;;;;;;;7.34;54.05;93992.25;6167884;23;20020;-82
2021/04/15 07:04:29;;;;;;;;;;;;;;;7.30;53.71;93997.25;6142851;23;20069;-81
2021/04/15 07:07:13;;;;;;;11.80;8.85;;;;;;;7.31;53.65;93993.56;6170064;23;19912;-82
2021/04/15 07:09:49;;;;;;;20.00;10.27;;;;;;;7.30;53.68;93989.34;6174271;23;20637;-82
2021/04/15 07:12:39;;;;;;;13.38;10.18;;;;;;;7.48;53.66;93997.78;6175180;23;20562;-81
2021/04/15 07:15:10;;;;;;;11.85;9.27;;;;;;;7.60;54.13;94000.91;6142762;23;20694;-82
2021/04/15 07:18:15;;;;;;;20.63;11.13;;;;;;;7.63;53.48;94005.63;6178174;23;20001;-82
2021/04/15 07:21:09;;;;;;;14.05;11.73;;;;;;;7.64;53.23;93997.47;6083104;23;20021;-81
2021/04/15 07:23:53;;;;;;;22.20;14.07;;;;;;;7.70;53.38;94003.53;6174317;23;20388;-82
2021/04/15 07:26:59;;;;;;;12.80;10.00;;;;;;;7.81;53.13;94008.53;6179272;23;20005;-81
2021/04/15 07:30:02;;;;;;;13.30;9.95;;;;;;;7.88;52.97;94002.19;6104113;23;20028;-81
2021/04/15 07:32:48;;;;;;;14.68;10.88;;;;;;;7.81;52.32;93997.22;6173999;23;20008;-82
2021/04/15 07:35:23;;;;;;;14.48;10.85;;;;;;;7.90;52.44;94019.28;6178866;23;19997;-81
2021/04/15 07:38:10;;;;;;;12.43;9.75;;;;;;;7.71;52.71;94010.38;6164833;23;20103;-82
2021/04/15 07:41:03;;;;;;;12.52;8.73;;;;;;;7.67;52.90;94017.97;6126534;23;20129;-83
2021/04/15 07:43:38;;;;;;;14.57;11.05;;;;;;;7.81;52.99;94013.78;6167060;23;20096;-82
2021/04/15 07:46:18;;;;;;;14.23;12.63;;;;;;;7.70;53.67;94016.69;6141203;23;20028;-81
2021/04/15 07:48:49;;;;;;;16.88;11.93;;;;;;;7.66;53.30;94015.63;6173982;23;20021;-82
2021/04/15 07:51:40;;;;;;;18.85;11.45;;;;;;;7.72;52.87;94020.63;6170225;23;20021;-82
2021/04/15 07:54:31;;;;;;;17.13;10.73;;;;;;;7.71;52.40;94026.16;6137726;23;20009;-82
2021/04/15 07:57:11;;;;;;;16.45;11.63;;;;;;;7.65;52.02;94025.38;6177598;23;20507;-83
2021/04/15 08:00:11;;;;;;;15.38;11.30;;;;;;;7.58;52.51;94018.78;6177976;23;20636;-82
2021/04/15 08:02:40;;;;;;;15.77;11.68;;;;;;;7.59;52.71;94025.63;6177066;23;20016;-82
2021/04/15 08:05:30;;;;;;;15.73;12.57;;;;;;;7.51;52.90;94040.09;6177249;23;20075;-82
2021/04/15 08:08:31;;;;;;;15.13;11.90;;;;;;;7.32;52.99;94031.16;6166851;23;20013;-81
2021/04/15 08:11:18;;;;;;;18.05;12.73;;;;;;;7.38;53.02;94025.63;6169147;23;20063;-81
2021/04/15 08:14:13;;;;;;;16.58;12.25;;;;;;;7.50;53.55;94024.56;6167581;23;20583;-80
2021/04/15 08:17:10;;;;;;;14.43;11.98;;;;;;;7.58;54.04;94026.66;6165881;23;20096;-84
2021/04/15 08:19:58;;;;;;;17.15;13.15;;;;;;;7.56;53.40;94026.16;6128541;23;20021;-82
2021/04/15 08:22:31;;;;;;;16.17;12.02;;;;;;;7.47;53.33;94023.28;6169222;23;20476;-80
2021/04/15 08:25:21;;;;;;;15.63;12.18;;;;;;;7.60;53.38;94032.47;6169912;23;20071;-81
2021/04/15 08:28:00;;;;;;;17.08;11.48;;;;;;;7.44;52.68;93986.19;6172495;23;20041;-82
2021/04/15 08:30:42;;;;;;;14.63;11.60;;;;;;;7.84;52.35;94031.66;6141165;23;20016;-82
2021/04/15 08:33:20;;;;;;;14.25;10.32;;;;;;;7.93;52.03;94024.00;6139443;23;20009;-82
2021/04/15 08:36:22;;;;;;;16.40;13.02;;;;;;;7.92;52.13;94024.25;6142254;23;20027;-82
2021/04/15 08:39:10;;;;;;;19.13;13.07;;;;;;;7.98;51.90;94023.22;6176846;23;20079;-81
2021/04/15 08:41:42;;;;;;;19.63;13.68;;;;;;;7.89;51.70;94024.81;6140237;23;20068;-81
2021/04/15 08:44:43;;;;;;;18.35;12.43;;;;;;;7.81;51.54;94028.78;6145013;23;20012;-87
2021/04/15 08:47:32;;;;;;;17.60;11.57;;;;;;;7.60;52.22;94011.44;6104292;23;20049;-81
2021/04/15 08:50:07;;;;;;;14.15;11.10;;;;;;;7.70;52.39;94021.94;6167434;23;20076;-81
2021/04/15 08:52:56;;;;;;;19.13;10.55;;;;;;;7.73;51.94;94027.44;6141435;23;20017;-82
2021/04/15 08:55:35;;;;;;;12.90;11.27;;;;;;;7.79;51.75;94020.34;6144937;23;20067;-82
2021/04/15 08:58:28;;;;;;;12.02;9.52;;;;;;;7.80;51.15;94016.66;6145496;23;20056;-82
2021/04/15 09:01:11;;;;;;;12.80;10.32;;;;;;;7.87;51.91;94022.44;6170853;23;20021;-81
2021/04/15 09:03:52;;;;;;;14.43;11.63;;;;;;;8.07;51.32;94014.50;6141936;23;20415;-82
2021/04/15 09:06:25;;;;;;;16.63;12.23;;;;;;;8.08;51.31;94023.97;6176272;23;20013;-82
2021/04/15 09:09:10;;;;;;;14.48;11.60;;;;;;;8.09;51.55;94020.28;6179096;23;20114;-81
2021/04/15 09:12:10;;;;;;;16.70;12.30;;;;;;;8.03;52.63;94016.09;6174440;23;20016;-82
2021/04/15 09:15:13;;;;;;;16.42;12.75;;;;;;;8.06;52.70;94023.44;6125873;23;20082;-81
2021/04/15 09:17:40;;;;;;;16.00;12.70;;;;;;;8.13;52.14;94016.06;6161045;23;20000;-81
2021/04/15 09:20:32;;;;;;;14.05;11.35;;;;;;;8.14;51.77;94015.03;6173091;23;20055;-81
2021/04/15 09:23:31;;;;;;;15.20;12.90;;;;;;;8.06;51.53;94009.53;6166394;23;20088;-81
2021/04/15 09:26:15;;;;;;;19.25;13.20;;;;;;;7.94;51.57;94001.91;6169972;23;20910;-83
2021/04/15 09:29:06;;;;;;;15.77;12.43;;;;;;;7.86;51.83;94002.47;6168167;23;20024;-80
2021/04/15 09:31:52;;;;;;;18.10;13.52;;;;;;;8.00;52.62;94003.47;6169082;23;20356;-81
2021/04/15 09:34:45;;;;;;;20.13;13.15;;;;;;;8.10;51.77;94003.47;6168395;23;20092;-81
2021/04/15 09:37:48;;;;;;;16.35;12.43;;;;;;;8.08;52.35;93997.66;6143717;23;20764;-82
2021/04/15 09:40:32;;;;;;;19.58;14.77;;;;;;;8.19;52.43;93988.69;6145384;23;20523;-80
2021/04/15 09:43:15;;;;;;;16.90;14.13;;;;;;;8.34;52.30;94003.66;6172079;23;20367;-81
2021/04/15 09:46:18;;;;;;;16.17;13.63;;;;;;;8.53;52.84;93996.75;6169393;23;20104;-80
2021/04/15 09:49:02;;;;;;;47.25;23.30;;;;;;;8.53;50.88;93988.03;6173387;23;20032;-82
2021/04/15 09:51:40;;;;;;;18.80;14.63;;;;;;;8.35;51.56;93986.81;6175455;23;20021;-82
2021/04/15 09:54:43;;;;;;;22.92;13.65;;;;;;;8.45;52.17;93988.63;6175636;23;20020;-81
2021/04/15 09:57:30;;;;;;;16.52;13.70;;;;;;;8.53;51.38;93988.84;6176140;23;20048;-81
2021/04/15 10:00:13;;;;;;;18.23;11.40;;;;;;;8.54;50.93;93989.63;6177512;23;20020;-81
2021/04/15 10:02:57;;;;;;;16.60;11.85;;;;;;;8.42;51.28;93976.75;6178131;23;20084;-81
2021/04/15 10:06:17;;;;;;;25.20;13.93;;;;;;;8.58;50.82;93988.81;6140604;23;20001;-81
2021/04/15 10:08:54;;;;;;;17.38;13.38;;;;;;;8.69;50.31;93982.44;6096849;23;20017;-80
2021/04/15 10:11:44;;;;;;;21.02;13.35;;;;;;;8.90;50.14;93983.09;6181539;23;20109;-80
2021/04/15 10:14:12;;;;;;;16.30;11.82;;;;;;;8.74;49.96;93984.25;6127601;23;20021;-80
2021/04/15 10:16:41;;;;;;;21.90;13.52;;;;;;;8.81;50.25;93983.94;6143037;23;20367;-81
2021/04/15 10:19:21;;;;;;;17.77;12.27;;;;;;;8.98;50.26;93982.53;6155518;23;20360;-81
2021/04/15 10:21:49;;;;;;;18.23;11.05;;;;;;;9.08;49.31;93976.41;6142758;23;20021;-80
2021/04/15 10:25:00;;;;;;;15.80;11.30;;;;;;;9.07;48.94;93972.97;6139972;23;20756;-81
2021/04/15 10:27:44;;;;;;;16.95;11.82;;;;;;;9.20;49.38;93976.03;6083287;23;20022;-81
2021/04/15 10:30:31;;;;;;;47.22;28.88;;;;;;;9.09;49.52;93984.03;6083218;23;20138;-81
2021/04/15 10:33:24;;;;;;;16.23;12.70;;;;;;;9.23;48.71;93968.38;6121750;23;20017;-81
2021/04/15 10:36:10;;;;;;;15.75;11.30;;;;;;;9.32;47.93;93973.84;6137382;23;20519;-81
2021/04/15 10:38:41;;;;;;;17.70;11.75;;;;;;;9.37;48.23;93976.44;6176405;23;20447;-82
2021/04/15 10:41:18;;;;;;;16.63;11.50;;;;;;;9.49;47.67;93968.94;6173137;23;20351;-81
2021/04/15 10:44:34;;;;;;;20.45;11.75;;;;;;;9.50;47.56;93965.25;6145124;23;20112;-83
2021/04/15 10:47:26;;;;;;;14.52;11.07;;;;;;;9.74;47.05;93963.44;6136855;23;20062;-80
2021/04/15 10:50:10;;;;;;;13.75;10.40;;;;;;;9.90;45.85;93958.81;6136240;23;20051;-81
2021/04/15 10:53:10;;;;;;;14.07;11.13;;;;;;;10.02;46.34;93962.63;6162039;23;20021;-81
2021/04/15 10:55:48;;;;;;;12.98;10.07;;;;;;;10.05;44.99;93955.22;6095847;23;20028;-81
2021/04/15 10:58:31;;;;;;;13.45;9.98;;;;;;;9.98;44.56;93956.34;6166854;23;20575;-81
2021/04/15 11:01:18;;;;;;;13.90;10.88;;;;;;;9.91;45.67;93940.06;6165089;23;20471;-81
2021/04/15 11:03:48;;;;;;;14.98;9.98;;;;;;;10.17;45.91;93948.50;6166224;23;20587;-80
2021/04/15 11:06:36;;;;;;;15.18;10.45;;;;;;;10.48;44.65;93934.94;6162529;23;20024;-82
2021/04/15 11:09:33;;;;;;;15.45;10.48;;;;;;;10.62;44.55;93923.38;6153573;23;20013;-81
2021/04/15 11:12:13;;;;;;;14.20;10.05;;;;;;;10.62;43.56;93923.38;6146950;23;20083;-82
2021/04/15 11:14:58;;;;;;;17.88;12.27;;;;;;;10.66;43.82;93934.94;6159412;23;20020;-82
2021/04/15 11:17:31;;;;;;;20.67;10.80;;;;;;;10.70;43.72;93924.59;6137067;23;20212;-83
2021/04/15 11:20:18;;;;;;;14.75;8.57;;;;;;;10.48;43.51;93948.13;6165265;23;20016;-82
2021/04/15 11:22:58;;;;;;;13.48;9.52;;;;;;;10.52;43.06;93930.63;6164194;23;20571;-82
2021/04/15 11:25:27;;;;;;;13.13;9.48;;;;;;;10.40;43.80;93936.34;6135504;23;20021;-83
2021/04/15 11:27:54;;;;;;;9.45;8.25;;;;;;;10.43;43.46;93926.00;6169348;23;20029;-81
2021/04/15 11:30:36;;;;;;;13.45;10.07;;;;;;;10.77;43.61;93936.38;6174184;23;20088;-81
2021/04/15 11:33:04;;;;;;;13.25;9.50;;;;;;;10.63;42.56;93903.81;6175064;23;20025;-82
2021/04/15 11:35:30;;;;;;;10.90;9.25;;;;;;;10.79;42.41;93939.53;6151746;23;20346;-81
2021/04/15 11:38:17;;;;;;;10.35;9.25;;;;;;;10.83;42.07;93931.81;6180519;23;20005;-83
2021/04/15 11:40:50;;;;;;;11.05;9.13;;;;;;;10.82;42.22;93938.94;6167325;23;20013;-81
2021/04/15 11:43:25;;;;;;;10.27;7.95;;;;;;;11.04;42.65;93929.66;6168235;23;20017;-81
2021/04/15 11:45:53;;;;;;;13.00;8.33;;;;;;;11.08;42.13;93928.81;6170277;23;20043;-81
2021/04/15 11:48:18;;;;;;;8.40;7.25;;;;;;;11.16;40.27;93932.63;6163849;23;20247;-82
2021/04/15 11:50:46;;;;;;;13.80;7.55;;;;;;;11.10;39.99;93902.84;6140218;23;21832;-83
2021/04/15 11:53:45;;;;;;;14.45;7.07;;;;;;;11.42;40.03;93920.59;6142133;23;20013;-82
2021/04/15 11:56:14;;;;;;;14.20;8.10;;;;;;;11.50;40.45;93932.34;6170301;23;20075;-82
2021/04/15 11:58:40;;;;;;;12.55;8.57;;;;;;;11.44;40.79;93922.91;6168114;23;20021;-82
2021/04/15 12:01:05;;;;;;;14.93;10.27;;;;;;;11.27;40.42;93924.25;6133761;23;20020;-80
2021/04/15 12:03:34;;;;;;;10.52;8.55;;;;;;;11.09;40.48;93929.59;6173335;23;20440;-83
2021/04/15 12:06:07;;;;;;;10.93;7.80;;;;;;;10.83;40.75;93923.88;6174980;23;20017;-82
2021/04/15 12:08:38;;;;;;;10.25;8.30;;;;;;;11.00;41.86;93924.13;6175733;23;20009;-82
2021/04/15 12:11:20;;;;;;;9.95;7.97;;;;;;;11.00;41.11;93933.94;6142233;23;20005;-79
2021/04/15 12:13:53;;;;;;;13.40;8.65;;;;;;;11.07;42.10;93937.00;6141156;23;20071;-82
2021/04/15 12:16:50;;;;;;;9.60;8.38;;;;;;;10.93;41.32;93938.81;6166686;23;20029;-82
2021/04/15 12:19:19;;;;;;;13.70;10.07;;;;;;;10.98;41.64;93938.75;6141806;23;20095;-81
2021/04/15 12:21:56;;;;;;;61.47;26.80;;;;;;;10.93;40.94;93931.66;6090784;23;20014;-83
2021/04/15 12:24:39;;;;;;;11.15;9.43;;;;;;;10.62;41.82;93923.38;6149269;23;20468;-81
2021/04/15 12:27:30;;;;;;;10.65;9.40;;;;;;;10.30;42.02;93931.19;6145527;23;20009;-81
2021/04/15 12:30:02;;;;;;;11.25;8.45;;;;;;;10.27;42.36;93937.03;6164411;23;20009;-82
2021/04/15 12:33:01;;;;;;;10.65;8.82;;;;;;;10.30;43.23;93936.47;6182116;23;20454;-81